createdAt,value
2023-11-21T00:01:23.199Z,4.30
2023-11-21T00:04:10.468Z,4.00
2023-11-21T00:06:56.561Z,4.07
2023-11-21T00:09:42.880Z,3.75
2023-11-21T00:12:30.504Z,3.78
2023-11-21T00:15:16.908Z,3.58
2023-11-21T00:18:02.336Z,3.53
2023-11-21T00:20:48.903Z,3.50
2023-11-21T00:23:34.359Z,3.70
2023-11-21T00:26:21.997Z,3.75
2023-11-21T00:29:18.593Z,4.03
2023-11-21T00:32:06.817Z,3.65
2023-11-21T00:34:52.362Z,3.85
2023-11-21T00:37:40.344Z,4.15
2023-11-21T00:40:25.934Z,5.15
2023-11-21T00:43:11.636Z,4.88
2023-11-21T00:45:58.508Z,4.05
2023-11-21T00:48:44.250Z,4.00
2023-11-21T00:51:29.836Z,4.47
2023-11-21T00:54:18.269Z,4.70
2023-11-21T00:57:04.570Z,4.93
2023-11-21T00:59:52.002Z,3.90
2023-11-21T01:02:38.181Z,3.10
2023-11-21T01:05:24.240Z,3.28
2023-11-21T01:08:09.765Z,3.30
2023-11-21T01:10:56.753Z,4.05
2023-11-21T01:13:43.716Z,3.47
2023-11-21T01:16:29.722Z,3.90
2023-11-21T01:19:16.291Z,3.58
2023-11-21T01:22:02.583Z,3.08
2023-11-21T01:24:48.800Z,3.20
2023-11-21T01:27:37.248Z,3.13
2023-11-21T01:30:23.124Z,3.33
2023-11-21T01:33:10.067Z,3.75
2023-11-21T01:35:56.039Z,3.05
2023-11-21T01:38:41.916Z,3.05
2023-11-21T01:41:29.636Z,3.03
2023-11-21T01:44:15.693Z,3.78
2023-11-21T01:47:05.982Z,3.40
2023-11-21T01:49:52.285Z,3.55
2023-11-21T01:52:38.294Z,3.83
2023-11-21T01:55:27.989Z,3.90
2023-11-21T01:58:15.018Z,3.75
2023-11-21T02:01:01.470Z,3.75
2023-11-21T02:03:48.590Z,3.58
2023-11-21T02:06:35.426Z,3.78
2023-11-21T02:09:26.949Z,4.13
2023-11-21T02:12:13.436Z,4.22
2023-11-21T02:14:59.432Z,4.15
2023-11-21T02:17:45.492Z,3.97
2023-11-21T02:20:31.228Z,4.55
2023-11-21T02:23:17.643Z,4.47
2023-11-21T02:26:05.577Z,5.20
2023-11-21T02:28:52.440Z,5.50
2023-11-21T02:31:46.816Z,6.10
2023-11-21T02:34:33.564Z,9.02
2023-11-21T02:37:19.166Z,10.75
2023-11-21T02:40:07.723Z,10.75
2023-11-21T02:42:53.956Z,10.38
2023-11-21T02:45:42.369Z,8.38
2023-11-21T02:48:27.922Z,7.88
2023-11-21T02:51:14.559Z,7.60
2023-11-21T02:54:00.127Z,6.20
2023-11-21T02:56:47.320Z,7.63
2023-11-21T02:59:32.767Z,7.45
2023-11-21T03:02:18.642Z,6.45
2023-11-21T03:05:06.159Z,5.82
2023-11-21T03:07:51.933Z,5.80
2023-11-21T03:10:39.350Z,4.63
2023-11-21T03:13:25.065Z,4.45
2023-11-21T03:16:12.174Z,4.70
2023-11-21T03:18:58.076Z,4.68
2023-11-21T03:21:43.896Z,4.82
2023-11-21T03:24:30.353Z,4.43
2023-11-21T03:27:15.915Z,4.43
2023-11-21T03:30:05.262Z,3.92
2023-11-21T03:32:50.996Z,4.38
2023-11-21T03:35:37.902Z,4.15
2023-11-21T03:38:23.797Z,4.50
2023-11-21T03:41:33.204Z,4.35
2023-11-21T03:44:19.296Z,4.25
2023-11-21T03:47:05.240Z,4.38
2023-11-21T03:49:51.442Z,4.20
2023-11-21T03:52:37.444Z,5.15
2023-11-21T03:55:24.492Z,4.65
2023-11-21T03:58:09.997Z,3.60
2023-11-21T04:00:56.243Z,3.45
2023-11-21T04:03:42.228Z,4.05
2023-11-21T04:06:28.171Z,3.95
2023-11-21T04:09:14.552Z,3.83
2023-11-21T04:12:01.506Z,3.78
2023-11-21T04:14:47.212Z,3.55
2023-11-21T04:17:33.290Z,3.45
2023-11-21T04:20:19.308Z,3.03
2023-11-21T04:23:05.130Z,2.60
2023-11-21T04:26:10.921Z,3.30
2023-11-21T04:28:57.407Z,2.95
2023-11-21T04:31:43.382Z,3.35
2023-11-21T04:34:28.810Z,3.10
2023-11-21T04:37:14.690Z,3.83
2023-11-21T04:40:00.531Z,4.57
2023-11-21T04:42:47.648Z,4.85
2023-11-21T04:45:33.773Z,6.07
2023-11-21T04:48:19.793Z,7.25
2023-11-21T04:51:06.658Z,7.38
2023-11-21T04:53:53.257Z,6.60
2023-11-21T04:56:39.211Z,4.75
2023-11-21T04:59:26.314Z,4.32
2023-11-21T05:02:27.740Z,3.92
2023-11-21T05:05:19.408Z,4.35
2023-11-21T05:08:05.794Z,4.20
2023-11-21T05:10:53.365Z,4.18
2023-11-21T05:13:40.304Z,4.40
2023-11-21T05:16:29.160Z,4.93
2023-11-21T05:19:15.184Z,5.03
2023-11-21T05:22:01.995Z,5.80
2023-11-21T05:24:47.597Z,4.95
2023-11-21T05:27:33.543Z,5.18
2023-11-21T05:30:19.462Z,8.57
2023-11-21T05:33:05.045Z,6.20
2023-11-21T05:35:51.269Z,5.78
2023-11-21T05:38:37.742Z,5.43
2023-11-21T05:41:23.161Z,6.28
2023-11-21T05:44:08.923Z,6.13
2023-11-21T05:46:55.192Z,5.97
2023-11-21T05:49:41.342Z,6.50
2023-11-21T05:52:27.041Z,6.28
2023-11-21T05:55:13.120Z,5.82
2023-11-21T05:57:58.863Z,6.43
2023-11-21T06:00:44.960Z,6.72
2023-11-21T06:03:50.358Z,7.25
2023-11-21T06:06:37.122Z,8.60
2023-11-21T06:09:42.798Z,8.82
2023-11-21T06:12:30.258Z,8.40
2023-11-21T06:15:36.637Z,8.60
2023-11-21T06:18:42.157Z,7.32
2023-11-21T06:21:47.780Z,8.00
2023-11-21T06:24:53.622Z,10.43
2023-11-21T06:28:10.009Z,11.05
2023-11-21T06:30:56.126Z,11.18
2023-11-21T06:33:42.577Z,9.07
2023-11-21T06:36:44.925Z,8.10
2023-11-21T06:39:31.408Z,7.53
2023-11-21T06:42:17.417Z,8.13
2023-11-21T06:45:07.289Z,10.07
2023-11-21T06:48:13.303Z,11.23
2023-11-21T06:51:19.123Z,11.55
2023-11-21T06:54:24.851Z,10.20
2023-11-21T06:57:10.644Z,7.88
2023-11-21T06:59:58.752Z,7.28
2023-11-21T07:02:45.058Z,7.38
2023-11-21T07:05:30.880Z,6.10
2023-11-21T07:08:16.897Z,6.22
2023-11-21T07:11:04.461Z,4.90
2023-11-21T07:13:49.962Z,5.28
2023-11-21T07:16:39.156Z,5.22
2023-11-21T07:19:24.756Z,5.10
2023-11-21T07:22:10.612Z,9.35
2023-11-21T07:24:57.738Z,5.63
2023-11-21T07:27:44.621Z,4.80
2023-11-21T07:30:30.306Z,5.32
2023-11-21T07:33:36.378Z,6.57
2023-11-21T07:36:38.922Z,7.28
2023-11-21T07:42:50.306Z,5.55
2023-11-21T07:45:55.729Z,6.03
2023-11-21T07:49:05.793Z,6.68
2023-11-21T07:52:11.846Z,7.10
2023-11-21T07:55:17.364Z,6.55
2023-11-21T07:58:05.145Z,6.00
2023-11-21T08:00:51.514Z,4.20
2023-11-21T08:03:37.447Z,4.82
2023-11-21T08:06:43.193Z,4.60
2023-11-21T08:09:49.567Z,4.95
2023-11-21T08:12:43.043Z,4.65
2023-11-21T08:15:49.223Z,4.10
2023-11-21T08:18:55.043Z,8.00
2023-11-21T08:22:00.726Z,4.65
2023-11-21T08:25:07.370Z,5.78
2023-11-21T08:28:13.750Z,4.80
2023-11-21T08:31:19.785Z,4.55
2023-11-21T08:34:27.156Z,4.70
2023-11-21T08:37:36.124Z,4.97
2023-11-21T08:40:42.687Z,4.05
2023-11-21T08:43:48.033Z,4.50
2023-11-21T08:46:54.553Z,5.05
2023-11-21T08:49:59.970Z,6.30
2023-11-21T08:53:06.360Z,9.80
2023-11-21T08:56:11.672Z,7.35
2023-11-21T08:59:17.570Z,6.55
2023-11-21T09:02:23.439Z,7.47
2023-11-21T09:05:30.578Z,6.88
2023-11-21T09:08:37.246Z,6.50
2023-11-21T09:11:42.971Z,5.68
2023-11-21T09:14:48.822Z,5.90
2023-11-21T09:17:55.655Z,5.35
2023-11-21T09:21:01.214Z,5.93
2023-11-21T09:24:07.093Z,8.23
2023-11-21T09:27:12.504Z,7.38
2023-11-21T09:30:18.193Z,6.50
2023-11-21T09:33:24.855Z,6.30
2023-11-21T09:36:33.918Z,6.60
2023-11-21T09:39:39.782Z,6.85
2023-11-21T09:42:57.678Z,6.57
2023-11-21T09:46:09.191Z,7.28
2023-11-21T09:49:15.837Z,8.23
2023-11-21T09:52:22.617Z,8.88
2023-11-21T09:55:28.981Z,6.53
2023-11-21T09:58:36.085Z,6.50
2023-11-21T10:01:43.477Z,7.47
2023-11-21T10:04:49.445Z,6.07
2023-11-21T10:07:56.158Z,4.43
2023-11-21T10:11:11.417Z,4.03
2023-11-21T10:14:23.334Z,3.25
2023-11-21T10:17:35.567Z,2.88
2023-11-21T10:20:41.777Z,1.98
2023-11-21T10:23:49.090Z,2.55
2023-11-21T10:26:55.628Z,4.03
2023-11-21T10:30:01.463Z,3.33
2023-11-21T10:33:08.058Z,4.53
2023-11-21T10:36:13.820Z,7.28
2023-11-21T10:39:21.404Z,4.75
2023-11-21T10:42:29.564Z,4.75
2023-11-21T10:45:35.146Z,5.47
2023-11-21T10:48:41.508Z,5.38
2023-11-21T10:51:47.422Z,6.20
2023-11-21T10:54:53.145Z,15.05
2023-11-21T10:57:59.290Z,4.53
2023-11-21T11:01:05.878Z,4.53
2023-11-21T11:04:14.049Z,3.88
2023-11-21T11:07:23.621Z,5.28
2023-11-21T11:10:30.801Z,10.05
2023-11-21T11:13:36.429Z,7.65
2023-11-21T11:16:42.937Z,4.85
2023-11-21T11:19:49.521Z,11.13
2023-11-21T11:23:18.209Z,3.70
2023-11-21T11:26:41.871Z,3.85
2023-11-21T11:30:05.786Z,8.65
2023-11-21T11:33:29.529Z,5.68
2023-11-21T11:36:57.969Z,13.43
2023-11-21T11:40:07.040Z,5.88
2023-11-21T11:43:22.223Z,6.30
2023-11-21T11:46:27.785Z,5.78
2023-11-21T11:49:50.120Z,5.50
2023-11-21T11:53:03.540Z,5.10
2023-11-21T11:56:39.101Z,5.07
2023-11-21T11:59:44.773Z,6.65
2023-11-21T12:02:50.969Z,4.65
2023-11-21T12:05:57.428Z,4.85
2023-11-21T12:09:04.432Z,5.80
2023-11-21T12:12:10.701Z,6.38
2023-11-21T12:14:56.464Z,9.55
2023-11-21T12:17:44.642Z,8.45
2023-11-21T12:20:32.185Z,8.38
2023-11-21T12:23:18.208Z,8.55
2023-11-21T12:26:04.629Z,8.88
2023-11-21T12:28:56.892Z,7.32
2023-11-21T12:31:43.630Z,10.23
2023-11-21T12:34:29.459Z,9.32
2023-11-21T12:37:15.097Z,6.88
2023-11-21T12:40:00.694Z,6.13
2023-11-21T12:42:49.506Z,6.15
2023-11-21T12:45:35.224Z,6.18
2023-11-21T12:48:25.638Z,6.45
2023-11-21T12:54:27.492Z,5.28
2023-11-21T12:57:33.235Z,5.20
2023-11-21T13:00:49.680Z,5.88
2023-11-21T13:03:55.678Z,11.13
2023-11-21T13:07:01.286Z,17.10
2023-11-21T13:10:06.586Z,18.88
2023-11-21T13:13:14.077Z,19.58
2023-11-21T13:16:27.004Z,19.77
2023-11-21T13:19:34.149Z,16.88
2023-11-21T13:22:39.888Z,14.55
2023-11-21T13:25:50.929Z,17.10
2023-11-21T13:29:00.566Z,10.80
2023-11-21T13:32:06.300Z,9.02
2023-11-21T13:35:11.839Z,8.85
2023-11-21T13:38:18.828Z,9.93
2023-11-21T13:41:24.522Z,9.82
2023-11-21T13:44:17.719Z,9.48
2023-11-21T13:47:24.946Z,8.80
2023-11-21T13:50:30.628Z,7.72
2023-11-21T13:53:45.035Z,8.77
2023-11-21T13:56:50.797Z,10.10
2023-11-21T13:59:56.466Z,9.48
2023-11-21T14:03:02.360Z,8.60
2023-11-21T14:05:52.021Z,6.82
2023-11-21T14:08:37.982Z,5.22
2023-11-21T14:11:26.298Z,4.00
2023-11-21T14:14:13.968Z,3.17
2023-11-21T14:17:08.332Z,4.95
2023-11-21T14:19:56.659Z,4.25
2023-11-21T14:22:42.222Z,5.10
2023-11-21T14:25:28.081Z,5.03
2023-11-21T14:28:13.721Z,3.80
2023-11-21T14:31:19.478Z,3.25
2023-11-21T14:34:25.490Z,2.15
2023-11-21T14:37:31.265Z,3.72
2023-11-21T14:40:36.930Z,3.38
2023-11-21T14:43:43.337Z,2.30
2023-11-21T14:46:49.349Z,2.13
2023-11-21T14:49:55.251Z,2.38
2023-11-21T14:53:01.134Z,2.53
2023-11-21T14:55:53.131Z,2.55
2023-11-21T14:58:58.639Z,2.50
2023-11-21T15:01:44.614Z,4.00
2023-11-21T15:04:52.994Z,2.40
2023-11-21T15:08:00.724Z,2.53
2023-11-21T15:11:06.423Z,2.10
2023-11-21T15:14:12.293Z,2.50
2023-11-21T15:17:01.224Z,2.13
2023-11-21T15:19:46.912Z,3.10
2023-11-21T15:22:32.465Z,3.05
2023-11-21T15:25:18.403Z,2.47
2023-11-21T15:28:24.312Z,3.88
2023-11-21T15:31:30.511Z,3.75
2023-11-21T15:34:36.929Z,2.90
2023-11-21T15:37:43.017Z,2.70
2023-11-21T15:40:48.733Z,2.92
2023-11-21T15:43:54.536Z,2.63
2023-11-21T15:46:42.429Z,2.60
2023-11-21T15:49:50.862Z,1.65
2023-11-21T15:52:37.622Z,1.83
2023-11-21T15:56:02.069Z,1.88
2023-11-21T15:58:56.198Z,1.30
2023-11-21T16:01:44.916Z,1.50
2023-11-21T16:04:31.006Z,4.43
2023-11-21T16:07:17.357Z,3.10
2023-11-21T16:10:05.203Z,2.42
2023-11-21T16:12:50.870Z,3.17
2023-11-21T16:15:57.368Z,1.27
2023-11-21T16:19:03.327Z,1.23
2023-11-21T16:21:50.283Z,1.33
2023-11-21T16:24:56.141Z,1.25
2023-11-21T16:28:02.142Z,1.63
2023-11-21T16:31:08.033Z,4.35
2023-11-21T16:34:19.511Z,5.00
2023-11-21T16:37:10.327Z,2.70
2023-11-21T16:40:18.065Z,1.75
2023-11-21T16:43:23.784Z,7.38
2023-11-21T16:46:33.026Z,7.05
2023-11-21T16:49:35.201Z,4.40
2023-11-21T16:52:23.680Z,2.20
2023-11-21T16:55:29.532Z,1.08
2023-11-21T16:58:34.922Z,0.90
2023-11-21T17:01:21.603Z,0.88
2023-11-21T17:04:26.175Z,1.08
2023-11-21T17:07:12.946Z,1.20
2023-11-21T17:10:19.270Z,0.90
2023-11-21T17:13:25.237Z,1.00
2023-11-21T17:17:11.173Z,1.10
2023-11-21T17:20:56.960Z,1.42
2023-11-21T17:24:42.232Z,1.00
2023-11-21T17:28:28.035Z,0.90
2023-11-21T17:32:16.375Z,1.08
2023-11-21T17:36:02.615Z,1.27
2023-11-21T17:39:38.790Z,1.08
2023-11-21T17:42:44.627Z,1.50
2023-11-21T17:45:50.485Z,1.42
2023-11-21T17:48:56.467Z,1.70
2023-11-21T17:52:02.354Z,1.70
2023-11-21T17:55:08.131Z,1.52
2023-11-21T17:58:13.635Z,1.77
2023-11-21T18:01:19.250Z,2.15
2023-11-21T18:04:26.129Z,3.55
2023-11-21T18:07:31.954Z,5.22
2023-11-21T18:10:37.756Z,5.60
2023-11-21T18:13:43.301Z,7.00
2023-11-21T18:16:49.110Z,7.38
2023-11-21T18:19:55.246Z,11.07
2023-11-21T18:23:00.794Z,8.75
2023-11-21T18:26:06.730Z,8.50
2023-11-21T18:29:12.468Z,7.80
2023-11-21T18:32:18.687Z,8.77
2023-11-21T18:35:25.004Z,7.45
2023-11-21T18:38:30.926Z,4.80
2023-11-21T18:41:43.638Z,5.15
2023-11-21T18:44:57.038Z,5.43
2023-11-21T18:48:45.287Z,5.55
2023-11-21T18:52:31.060Z,5.85
2023-11-21T18:56:18.561Z,6.22
2023-11-21T19:00:05.514Z,6.78
2023-11-21T19:03:58.517Z,6.38
2023-11-21T19:07:47.995Z,6.50
2023-11-21T19:11:34.090Z,6.57
2023-11-21T19:15:22.804Z,7.35
2023-11-21T19:19:08.579Z,5.97
2023-11-21T19:22:54.565Z,7.47
2023-11-21T19:26:00.298Z,9.82
2023-11-21T19:29:06.699Z,12.18
2023-11-21T19:32:12.363Z,11.90
2023-11-21T19:35:18.027Z,12.10
2023-11-21T19:38:23.685Z,10.93
2023-11-21T19:41:42.131Z,14.57
2023-11-21T19:44:50.973Z,15.65
2023-11-21T19:47:57.294Z,14.23
2023-11-21T19:51:02.996Z,14.52
2023-11-21T19:54:09.643Z,16.42
2023-11-21T19:57:15.735Z,15.45
2023-11-21T20:00:21.604Z,15.70
2023-11-21T20:03:27.231Z,15.75
2023-11-21T20:06:36.910Z,14.30
2023-11-21T20:09:45.039Z,11.70
2023-11-21T20:12:55.847Z,13.80
2023-11-21T20:16:04.543Z,10.38
2023-11-21T20:19:10.484Z,9.25
2023-11-21T20:22:18.767Z,13.88
2023-11-21T20:25:05.952Z,10.82
2023-11-21T20:27:51.612Z,10.93
2023-11-21T20:30:58.411Z,9.25
2023-11-21T20:33:44.420Z,12.43
2023-11-21T20:36:50.455Z,14.15
2023-11-21T20:39:56.495Z,10.82
2023-11-21T20:43:05.140Z,12.57
2023-11-21T20:46:10.707Z,15.90
2023-11-21T20:49:16.512Z,16.08
2023-11-21T20:52:22.038Z,17.35
2023-11-21T20:55:28.123Z,17.55
2023-11-21T20:58:33.936Z,15.82
2023-11-21T21:01:39.812Z,15.90
2023-11-21T21:04:45.575Z,13.23
2023-11-21T21:07:31.998Z,12.05
2023-11-21T21:10:17.920Z,16.10
2023-11-21T21:13:03.827Z,13.75
2023-11-21T21:15:50.543Z,16.25
2023-11-21T21:18:36.297Z,16.52
2023-11-21T21:21:23.348Z,11.80
2023-11-21T21:24:29.258Z,11.80
2023-11-21T21:27:35.005Z,15.85
2023-11-21T21:30:41.338Z,13.27
2023-11-21T21:33:47.072Z,14.45
2023-11-21T21:36:52.644Z,17.48
2023-11-21T21:39:58.680Z,16.83
2023-11-21T21:43:05.405Z,12.77
2023-11-21T21:46:11.170Z,10.30
2023-11-21T21:49:16.693Z,11.90
2023-11-21T21:52:23.150Z,9.32
2023-11-21T21:55:35.830Z,8.65
2023-11-21T21:58:41.139Z,7.35
2023-11-21T22:01:47.478Z,7.88
2023-11-21T22:04:53.921Z,7.78
2023-11-21T22:08:01.160Z,5.97
2023-11-21T22:11:07.333Z,8.55
2023-11-21T22:14:13.274Z,8.80
2023-11-21T22:17:20.531Z,7.18
2023-11-21T22:20:27.253Z,7.65
2023-11-21T22:23:33.294Z,9.13
2023-11-21T22:26:39.280Z,6.93
2023-11-21T22:29:45.028Z,7.72
2023-11-21T22:32:51.407Z,8.35
2023-11-21T22:35:56.829Z,7.10
2023-11-21T22:39:04.146Z,8.98
2023-11-21T22:42:09.992Z,7.65
2023-11-21T22:45:15.955Z,9.07
2023-11-21T22:48:21.965Z,9.20
2023-11-21T22:51:27.771Z,8.02
2023-11-21T22:54:33.466Z,9.18
2023-11-21T22:57:39.180Z,9.15
2023-11-21T23:00:44.560Z,7.55
2023-11-21T23:03:50.510Z,8.85
2023-11-21T23:06:57.150Z,8.98
2023-11-21T23:10:03.032Z,8.10
2023-11-21T23:13:08.891Z,7.70
2023-11-21T23:16:15.020Z,7.40
2023-11-21T23:19:20.790Z,6.65
2023-11-21T23:22:27.115Z,8.48
2023-11-21T23:25:32.817Z,13.35
2023-11-21T23:28:41.599Z,14.20
2023-11-21T23:31:47.334Z,11.75
2023-11-21T23:34:53.016Z,9.07
2023-11-21T23:37:58.815Z,9.80
2023-11-21T23:41:04.385Z,8.02
2023-11-21T23:44:12.948Z,9.20
2023-11-21T23:47:00.423Z,9.88
2023-11-21T23:49:48.400Z,8.88
2023-11-21T23:52:35.256Z,9.32
2023-11-21T23:55:20.972Z,8.52
2023-11-21T23:58:26.643Z,9.50
